Time;durP1;ratioP1;P1;durP2;ratioP2;P2;SDS_P1;SDS_P2;PMS_P1;PMS_P2;Temp;Humidity;BMP_temperature;BMP_pressure;BME280_temperature;BME280_humidity;BME280_pressure;Samples;Min_cycle;Max_cycle;Signal;HPM_P1;HPM_P2
2021/04/13 00:01:21;;;;;;;65.57;32.00;;;;;;;5.23;70.65;94652.44;1799893;79;21053;-54
2021/04/13 00:03:54;;;;;;;65.55;31.68;;;;;;;5.25;70.93;94652.78;1799564;79;21088;-54
2021/04/13 00:06:29;;;;;;;64.15;32.48;;;;;;;5.27;71.13;94652.38;1800107;79;21429;-54
2021/04/13 00:09:27;;;;;;;55.95;27.00;;;;;;;5.23;71.56;94645.44;1799967;79;21572;-53
2021/04/13 00:12:03;;;;;;;50.75;24.27;;;;;;;5.20;71.46;94641.61;1799856;79;21172;-54
2021/04/13 00:14:34;;;;;;;51.60;25.35;;;;;;;5.14;71.27;94648.70;1784533;79;21084;-54
2021/04/13 00:17:06;;;;;;;50.90;25.45;;;;;;;5.07;71.26;94646.09;1784932;79;21081;-54
2021/04/13 00:19:53;;;;;;;64.82;30.80;;;;;;;5.04;71.51;94645.56;1800152;79;27154;-54
2021/04/13 00:22:22;;;;;;;72.78;33.25;;;;;;;5.07;71.58;94650.77;1799842;79;21164;-54
2021/04/13 00:24:51;;;;;;;87.27;37.48;;;;;;;5.02;71.45;94652.03;1799881;79;21060;-58
2021/04/13 00:27:23;;;;;;;87.62;37.65;;;;;;;4.93;71.47;94655.85;1799892;79;21065;-54
2021/04/13 00:30:10;;;;;;;97.80;43.35;;;;;;;4.81;71.59;94660.50;1800015;78;21485;-54
2021/04/13 00:32:41;;;;;;;86.90;37.90;;;;;;;4.72;71.99;94661.62;1799636;79;21219;-53
2021/04/13 00:35:17;;;;;;;97.90;42.05;;;;;;;4.71;72.14;94657.36;1799828;78;21108;-53
2021/04/13 00:37:45;;;;;;;71.60;33.45;;;;;;;4.67;72.39;94651.78;1729569;79;21596;-52
2021/04/13 00:40:29;;;;;;;63.20;32.05;;;;;;;4.68;72.46;94651.38;1799941;79;21168;-55
2021/04/13 00:43:02;;;;;;;68.25;31.82;;;;;;;4.73;72.39;94652.27;1799918;79;21552;-54
2021/04/13 00:45:37;;;;;;;76.28;33.20;;;;;;;4.82;72.23;94649.03;1799910;79;21184;-54
2021/04/13 00:48:06;;;;;;;59.42;30.90;;;;;;;4.86;72.03;94647.80;1799863;79;21135;-54
2021/04/13 00:50:39;;;;;;;55.80;29.30;;;;;;;4.88;72.03;94645.42;1784540;79;21160;-53
2021/04/13 00:53:09;;;;;;;57.23;27.05;;;;;;;4.94;71.97;94646.49;1784997;79;21124;-54
2021/04/13 00:55:47;;;;;;;64.07;28.90;;;;;;;4.98;71.70;94643.11;1799846;79;21192;-54
2021/04/13 00:58:22;;;;;;;64.03;30.80;;;;;;;5.02;71.65;94642.48;1784543;79;21194;-54
2021/04/13 01:00:57;;;;;;;103.95;43.28;;;;;;;5.03;71.37;94644.03;1799816;79;21077;-54
2021/04/13 01:03:28;;;;;;;90.77;37.55;;;;;;;4.96;71.57;94638.67;1799878;79;21132;-54
2021/04/13 01:05:58;;;;;;;95.83;38.40;;;;;;;4.92;71.68;94641.27;1799800;78;21131;-53
2021/04/13 01:08:34;;;;;;;92.95;36.95;;;;;;;4.86;72.01;94635.53;1799876;79;21069;-54
2021/04/13 01:11:18;;;;;;;52.50;27.73;;;;;;;4.86;72.09;94627.36;1799829;79;21244;-54
2021/04/13 01:13:55;;;;;;;48.87;24.60;;;;;;;4.88;72.05;94633.16;1799914;79;21163;-55
2021/04/13 01:16:28;;;;;;;53.42;24.05;;;;;;;4.90;71.87;94634.09;1799739;79;21176;-55
2021/04/13 01:19:11;;;;;;;62.78;31.30;;;;;;;4.86;71.86;94628.72;1799527;79;21084;-55
2021/04/13 01:21:52;;;;;;;63.02;30.12;;;;;;;4.90;71.81;94633.52;1800141;79;21061;-54
2021/04/13 01:24:26;;;;;;;56.13;27.50;;;;;;;4.98;71.37;94626.76;1799873;79;21191;-53
2021/04/13 01:26:53;;;;;;;62.48;29.23;;;;;;;5.05;71.10;94629.97;1799915;79;21215;-54
2021/04/13 01:29:26;;;;;;;56.35;29.77;;;;;;;5.11;70.80;94626.36;1799805;79;21076;-54
2021/04/13 01:31:58;;;;;;;64.67;30.45;;;;;;;5.22;70.76;94624.23;1804553;79;21207;-54
2021/04/13 01:34:38;;;;;;;65.00;36.10;;;;;;;5.32;70.20;94623.27;1807944;79;21117;-54
2021/04/13 01:42:33;;;;;;;89.87;39.18;;;;;;;5.00;70.56;94620.91;1807807;78;21065;-53
2021/04/13 01:45:07;;;;;;;69.05;34.48;;;;;;;5.01;70.79;94619.11;1807765;79;21097;-54
2021/04/13 01:47:36;;;;;;;51.28;26.30;;;;;;;5.02;70.46;94623.98;1807676;79;21133;-54
2021/04/13 01:50:18;;;;;;;73.92;29.45;;;;;;;4.91;70.44;94620.06;1807717;79;21183;-54
2021/04/13 01:52:49;;;;;;;62.25;27.82;;;;;;;4.80;70.66;94615.37;1807328;79;21136;-53
2021/04/13 01:55:24;;;;;;;66.40;28.00;;;;;;;4.72;71.05;94619.40;1807783;78;21121;-54
2021/04/13 01:58:26;;;;;;;66.87;29.00;;;;;;;4.70;70.94;94608.14;1807762;78;21469;-54
2021/04/13 02:01:12;;;;;;;54.45;26.23;;;;;;;4.68;71.13;94613.23;1807781;79;21113;-54
2021/04/13 02:04:05;;;;;;;60.38;29.45;;;;;;;4.77;71.15;94620.28;1807793;79;21972;-55
2021/04/13 02:07:09;;;;;;;49.60;26.42;;;;;;;4.84;71.06;94621.55;1807541;79;21208;-52
2021/04/13 02:09:44;;;;;;;48.70;27.30;;;;;;;4.89;70.65;94614.27;1807664;79;21160;-53
2021/04/13 02:12:25;;;;;;;53.85;26.60;;;;;;;4.90;70.22;94623.20;1807254;79;21077;-57
2021/04/13 02:15:08;;;;;;;48.78;26.85;;;;;;;4.90;70.31;94621.25;1807443;78;21156;-56
2021/04/13 02:18:01;;;;;;;50.92;26.60;;;;;;;4.99;70.22;94616.64;1783304;79;21211;-57
2021/04/13 02:20:33;;;;;;;47.98;25.80;;;;;;;5.07;70.14;94613.38;1808021;79;21089;-58
2021/04/13 02:23:02;;;;;;;54.25;25.23;;;;;;;5.13;69.87;94608.98;1807877;79;21081;-56
2021/04/13 02:25:34;;;;;;;51.37;24.75;;;;;;;5.16;69.60;94612.84;1808004;79;21062;-57
2021/04/13 02:28:03;;;;;;;77.85;33.05;;;;;;;5.18;69.41;94611.23;1807958;78;21065;-57
2021/04/13 02:30:36;;;;;;;108.83;39.98;;;;;;;5.14;69.16;94613.25;1807877;79;21365;-54
2021/04/13 02:33:30;;;;;;;70.15;32.95;;;;;;;5.03;69.00;94616.77;1813237;79;21498;-60
2021/04/13 02:36:01;;;;;;;72.90;32.70;;;;;;;4.94;69.29;94607.58;1813411;77;21061;-66
2021/04/13 02:38:30;;;;;;;68.90;30.62;;;;;;;4.98;69.37;94611.77;1812890;79;21061;-60
2021/04/13 02:41:05;;;;;;;67.22;30.68;;;;;;;5.03;69.30;94612.68;1813617;79;21080;-61
2021/04/13 02:43:44;;;;;;;60.23;28.45;;;;;;;5.09;69.12;94611.59;1813652;79;21195;-59
2021/04/13 02:46:21;;;;;;;66.92;32.60;;;;;;;5.13;68.70;94611.72;1813505;78;21093;-59
2021/04/13 02:49:03;;;;;;;70.75;32.53;;;;;;;5.13;68.67;94607.63;1813273;79;21077;-61
2021/04/13 02:51:34;;;;;;;88.47;39.40;;;;;;;5.16;68.60;94606.79;1812537;79;21090;-60
2021/04/13 02:54:07;;;;;;;97.40;43.50;;;;;;;5.17;68.31;94616.51;1813854;78;21072;-60
2021/04/13 02:56:41;;;;;;;63.92;31.50;;;;;;;5.12;68.63;94608.81;1813806;79;21253;-59
2021/04/13 02:59:20;;;;;;;63.28;32.35;;;;;;;5.01;68.19;94609.57;1787579;79;21482;-56
2021/04/13 03:02:38;;;;;;;69.97;31.37;;;;;;;4.79;68.71;94610.34;1813598;79;21049;-58
2021/04/13 03:05:09;;;;;;;58.38;30.60;;;;;;;4.64;69.30;94599.48;1813381;79;21105;-52
2021/04/13 03:07:38;;;;;;;65.22;33.35;;;;;;;4.62;69.75;94608.05;1813584;79;21123;-54
2021/04/13 03:10:09;;;;;;;57.50;31.10;;;;;;;4.66;69.65;94607.44;1813522;79;21148;-53
2021/04/13 03:12:44;;;;;;;59.10;30.10;;;;;;;4.68;69.58;94609.15;1786524;79;21136;-55
2021/04/13 03:15:18;;;;;;;55.65;28.70;;;;;;;4.73;69.49;94613.34;1812672;79;21076;-55
2021/04/13 03:18:00;;;;;;;74.67;28.62;;;;;;;4.76;69.38;94605.12;1813436;79;21528;-54
2021/04/13 03:20:33;;;;;;;63.85;25.70;;;;;;;4.74;69.42;94610.22;1813594;79;21094;-55
2021/04/13 03:23:01;;;;;;;51.23;26.50;;;;;;;4.74;69.50;94608.85;1813711;79;21186;-53
2021/04/13 03:25:34;;;;;;;101.20;50.25;;;;;;;4.74;69.18;94608.07;1786638;79;21093;-55
2021/04/13 03:28:05;;;;;;;55.92;28.23;;;;;;;4.67;69.48;94608.97;1813656;79;21493;-54
2021/04/13 03:30:37;;;;;;;76.00;40.00;;;;;;;4.73;69.61;94604.59;1813517;79;21188;-53
2021/04/13 03:33:12;;;;;;;51.70;29.57;;;;;;;4.77;69.46;94605.91;1765881;79;21124;-54
2021/04/13 03:35:40;;;;;;;78.62;35.52;;;;;;;4.82;69.41;94606.19;1816348;77;21382;-55
2021/04/13 03:38:12;;;;;;;74.72;36.05;;;;;;;4.87;69.19;94614.48;1816401;79;21124;-54
2021/04/13 03:40:47;;;;;;;106.67;39.90;;;;;;;4.79;68.92;94628.06;1816413;79;21077;-55
2021/04/13 03:43:17;;;;;;;101.02;45.17;;;;;;;4.61;68.98;94622.11;1816413;78;21163;-57
2021/04/13 03:45:45;;;;;;;82.85;38.78;;;;;;;4.46;69.67;94625.61;1816465;79;21117;-55
2021/04/13 03:48:19;;;;;;;75.70;33.55;;;;;;;4.44;69.70;94625.85;1729611;79;21434;-56
2021/04/13 03:50:47;;;;;;;72.80;31.02;;;;;;;4.36;70.05;94621.09;1816306;79;21153;-55
2021/04/13 03:53:16;;;;;;;79.40;32.78;;;;;;;4.31;70.18;94626.22;1791664;79;21140;-54
2021/04/13 03:56:04;;;;;;;62.15;31.05;;;;;;;4.21;70.50;94629.27;1816356;79;21199;-54
2021/04/13 03:58:37;;;;;;;63.75;30.68;;;;;;;4.15;70.52;94628.19;1815859;79;21076;-54
2021/04/13 04:01:06;;;;;;;66.60;32.08;;;;;;;4.08;70.77;94629.63;1815505;78;21205;-54
2021/04/13 04:03:36;;;;;;;94.25;39.23;;;;;;;4.08;70.81;94634.31;1816328;79;21207;-55
2021/04/13 04:06:04;;;;;;;82.62;38.17;;;;;;;4.11;71.03;94632.92;1816376;79;21490;-54
2021/04/13 04:08:48;;;;;;;84.47;40.78;;;;;;;4.20;70.97;94630.45;1816310;79;21171;-55
2021/04/13 04:11:17;;;;;;;105.35;36.20;;;;;;;4.32;70.99;94624.47;1816422;78;21136;-55
2021/04/13 04:13:47;;;;;;;79.22;38.45;;;;;;;4.49;70.73;94629.47;1728871;79;21287;-55
2021/04/13 04:16:21;;;;;;;104.25;47.83;;;;;;;4.47;70.36;94629.90;1816310;79;21140;-55
2021/04/13 04:18:50;;;;;;;125.55;54.00;;;;;;;4.44;70.48;94637.50;1805532;79;21549;-54
2021/04/13 04:21:33;;;;;;;86.65;45.78;;;;;;;4.46;70.48;94638.47;1816332;79;21136;-54
2021/04/13 04:24:18;;;;;;;97.10;46.88;;;;;;;4.51;70.46;94633.34;1816349;79;21140;-54
2021/04/13 04:26:55;;;;;;;81.78;41.10;;;;;;;4.56;70.44;94638.89;1816179;78;21442;-54
2021/04/13 04:29:42;;;;;;;94.40;43.42;;;;;;;4.59;70.10;94644.30;1816352;79;21100;-57
2021/04/13 04:32:23;;;;;;;81.08;38.60;;;;;;;4.54;70.19;94642.05;1815502;79;21435;-54
2021/04/13 04:34:53;;;;;;;91.82;40.30;;;;;;;4.54;70.05;94639.32;1811296;79;21073;-53
2021/04/13 04:37:47;;;;;;;99.60;47.23;;;;;;;4.50;70.28;94634.52;1813493;77;21057;-55
2021/04/13 04:40:30;;;;;;;110.20;49.27;;;;;;;4.49;70.41;94631.62;1813474;79;22184;-54
2021/04/13 04:43:02;;;;;;;119.90;53.08;;;;;;;4.53;70.43;94630.19;1812008;79;21506;-54
2021/04/13 04:45:47;;;;;;;112.60;51.92;;;;;;;4.53;70.44;94637.78;1813515;79;21066;-55
2021/04/13 04:48:37;;;;;;;121.28;55.08;;;;;;;4.54;70.49;94635.23;1813482;79;21139;-55
2021/04/13 04:51:11;;;;;;;112.22;48.15;;;;;;;4.61;70.63;94636.48;1813440;78;21230;-54
2021/04/13 04:53:42;;;;;;;150.25;63.38;;;;;;;4.66;70.72;94635.25;1813447;79;21368;-54
2021/04/13 04:56:11;;;;;;;115.60;56.48;;;;;;;4.70;70.83;94630.52;1813420;78;21093;-55
2021/04/13 04:58:39;;;;;;;148.75;68.62;;;;;;;4.86;70.99;94626.58;1813451;78;21057;-54
2021/04/13 05:01:08;;;;;;;124.97;68.52;;;;;;;5.03;70.97;94629.61;1813367;78;21053;-55
2021/04/13 05:03:42;;;;;;;151.20;68.35;;;;;;;5.21;70.77;94630.88;1813571;78;21471;-55
2021/04/13 05:06:10;;;;;;;139.82;63.13;;;;;;;5.33;70.65;94624.22;1813385;79;21537;-55
2021/04/13 05:08:38;;;;;;;127.92;63.78;;;;;;;5.44;70.42;94624.03;1813390;79;21121;-57
2021/04/13 05:11:07;;;;;;;100.55;60.38;;;;;;;5.56;70.30;94619.31;1813165;79;21132;-56
2021/04/13 05:13:37;;;;;;;120.42;61.30;;;;;;;5.74;69.91;94624.62;1813398;78;21022;-54
2021/04/13 05:16:07;;;;;;;95.65;51.60;;;;;;;5.91;69.31;94626.86;1813433;79;21179;-58
2021/04/13 05:18:35;;;;;;;140.82;69.85;;;;;;;5.99;69.02;94629.64;1813428;79;21209;-55
2021/04/13 05:21:04;;;;;;;117.77;63.87;;;;;;;6.12;69.07;94614.17;1813400;78;21093;-57
2021/04/13 05:23:33;;;;;;;109.32;60.10;;;;;;;6.28;68.95;94620.44;1813289;78;21115;-57
2021/04/13 05:26:02;;;;;;;177.70;91.65;;;;;;;6.45;68.86;94618.52;1812804;78;21493;-61
2021/04/13 05:28:30;;;;;;;197.78;103.60;;;;;;;6.58;68.30;94617.45;1812698;78;21128;-54
2021/04/13 05:30:58;;;;;;;158.85;83.70;;;;;;;6.71;68.05;94610.72;1819187;78;21368;-55
2021/04/13 05:33:28;;;;;;;89.13;53.40;;;;;;;6.84;67.69;94611.56;1829090;78;21177;-57
2021/04/13 05:35:56;;;;;;;67.45;42.40;;;;;;;7.00;67.41;94608.84;1808461;78;21135;-56
2021/04/13 05:38:31;;;;;;;58.52;38.88;;;;;;;7.11;66.87;94597.23;1809671;78;21093;-56
2021/04/13 05:41:07;;;;;;;48.85;24.98;;;;;;;7.28;66.40;94605.59;1820869;78;21109;-58
2021/04/13 05:43:43;;;;;;;37.78;23.32;;;;;;;7.45;65.60;94600.86;1783878;78;22111;-56
2021/04/13 05:46:17;;;;;;;42.13;27.25;;;;;;;7.63;64.76;94598.42;1791698;78;22223;-58
2021/04/13 05:48:50;;;;;;;58.20;23.35;;;;;;;7.79;63.92;94598.39;1818463;78;21129;-56
2021/04/13 05:51:22;;;;;;;46.30;27.13;;;;;;;7.93;63.25;94591.16;1781521;78;21230;-56
2021/04/13 05:53:53;;;;;;;58.33;28.67;;;;;;;8.04;62.97;94595.75;1813804;78;21201;-56
2021/04/13 05:56:31;;;;;;;77.53;42.85;;;;;;;8.18;62.46;94594.77;1819301;78;22248;-57
2021/04/13 05:59:02;;;;;;;70.45;39.65;;;;;;;8.20;61.86;94603.31;1800957;78;21178;-55
2021/04/13 06:01:37;;;;;;;131.35;54.73;;;;;;;8.23;62.58;94587.38;1799837;78;21592;-58
2021/04/13 06:04:17;;;;;;;99.17;42.38;;;;;;;8.25;62.46;94580.85;1790352;78;21683;-57
2021/04/13 06:06:49;;;;;;;80.90;39.98;;;;;;;8.31;62.39;94573.65;1797024;78;21258;-57
2021/04/13 06:09:20;;;;;;;64.30;34.78;;;;;;;8.38;61.79;94568.53;1765911;78;22279;-57
2021/04/13 06:11:51;;;;;;;70.20;36.00;;;;;;;8.49;61.91;94579.95;1804133;78;21219;-57
2021/04/13 06:14:20;;;;;;;83.65;37.60;;;;;;;8.58;61.30;94583.58;1799866;78;21186;-56
2021/04/13 06:16:51;;;;;;;66.77;34.17;;;;;;;8.69;61.48;94581.30;1800828;78;21916;-60
2021/04/13 06:19:20;;;;;;;65.67;32.20;;;;;;;8.77;61.20;94578.48;1794321;78;21258;-56
2021/04/13 06:21:51;;;;;;;55.75;30.72;;;;;;;8.86;60.73;94574.50;1803603;78;21414;-60
2021/04/13 06:24:18;;;;;;;57.60;31.45;;;;;;;8.96;60.56;94574.75;1794915;78;21116;-56
2021/04/13 06:26:47;;;;;;;59.90;31.65;;;;;;;9.06;60.06;94569.53;1805533;78;21145;-59
2021/04/13 06:29:20;;;;;;;;;;;;;;;9.11;59.92;94574.45;1816854;78;21216;-58
2021/04/13 06:31:50;;;;;;;55.55;30.02;;;;;;;9.23;59.65;94575.80;1806705;78;20908;-59
2021/04/13 06:34:19;;;;;;;60.45;33.30;;;;;;;9.38;60.54;94573.34;1804211;78;21421;-55
2021/04/13 06:36:47;;;;;;;53.60;31.60;;;;;;;9.56;60.33;94581.75;1804140;77;21458;-57
2021/04/13 06:39:15;;;;;;;49.67;29.72;;;;;;;9.68;59.81;94574.86;1785052;78;21180;-57
2021/04/13 06:42:04;;;;;;;42.48;25.52;;;;;;;9.85;59.36;94568.58;1801316;77;21630;-56
2021/04/13 06:44:46;;;;;;;52.03;26.73;;;;;;;10.03;59.66;94572.87;1800193;78;21495;-56
2021/04/13 06:47:25;;;;;;;61.92;30.62;;;;;;;10.16;58.73;94567.45;1799115;78;22669;-57
2021/04/13 06:50:20;;;;;;;64.80;32.35;;;;;;;10.21;58.20;94572.40;1758081;80;22074;-57
2021/04/13 06:53:03;;;;;;;51.83;30.35;;;;;;;10.26;57.74;94571.81;1683537;83;21236;-58
2021/04/13 06:55:49;;;;;;;55.17;33.10;;;;;;;10.35;57.48;94581.47;1722314;81;21260;-55
2021/04/13 06:58:40;;;;;;;56.95;31.10;;;;;;;10.49;57.67;94575.45;1761544;80;21142;-56
2021/04/13 07:01:22;;;;;;;44.27;22.70;;;;;;;10.63;57.36;94574.92;1753562;80;22272;-60
2021/04/13 07:04:16;;;;;;;37.95;26.12;;;;;;;10.87;57.67;94573.96;1755837;80;21193;-55
2021/04/13 07:06:52;;;;;;;30.77;20.25;;;;;;;11.14;57.00;94577.42;1722275;80;21210;-57
2021/04/13 07:09:51;;;;;;;33.85;17.90;;;;;;;11.37;56.57;94572.11;1740883;80;21270;-59
2021/04/13 07:12:39;;;;;;;26.55;16.25;;;;;;;11.55;55.84;94565.25;1732499;81;21108;-60
2021/04/13 07:15:31;;;;;;;37.93;18.35;;;;;;;11.70;55.28;94565.47;1753794;80;21194;-57
2021/04/13 07:18:09;;;;;;;28.42;17.07;;;;;;;11.86;55.39;94552.77;1755766;80;21250;-56
2021/04/13 07:20:55;;;;;;;33.67;16.55;;;;;;;12.09;54.90;94552.89;1761156;80;21176;-60
2021/04/13 07:23:50;;;;;;;30.35;16.25;;;;;;;12.28;54.62;94556.41;1737357;81;21146;-65
2021/04/13 07:26:33;;;;;;;36.80;16.75;;;;;;;12.46;53.87;94559.13;1730170;81;21454;-60
2021/04/13 07:29:17;;;;;;;27.17;15.32;;;;;;;12.65;53.29;94551.70;1736892;80;21323;-63
2021/04/13 07:32:04;;;;;;;27.75;14.15;;;;;;;12.85;52.75;94553.31;1759102;80;21241;-63
2021/04/13 07:34:34;;;;;;;30.00;13.75;;;;;;;13.06;52.32;94553.74;1744793;80;21182;-61
2021/04/13 07:37:26;;;;;;;29.18;13.22;;;;;;;13.23;51.01;94547.98;1740472;80;21752;-60
2021/04/13 07:39:56;;;;;;;24.67;12.18;;;;;;;13.33;50.68;94545.30;1749216;80;21138;-58
2021/04/13 07:42:30;;;;;;;21.12;12.93;;;;;;;13.41;49.92;94549.27;1741546;82;21241;-57
2021/04/13 07:45:25;;;;;;;23.22;13.22;;;;;;;13.50;50.70;94552.73;1744882;81;21768;-58
2021/04/13 07:48:26;;;;;;;27.13;12.78;;;;;;;13.68;49.23;94556.77;1748563;81;21209;-59
2021/04/13 07:50:59;;;;;;;22.37;11.75;;;;;;;13.83;48.05;94554.04;1741509;81;21658;-58
2021/04/13 07:53:51;;;;;;;27.45;12.95;;;;;;;13.95;47.64;94542.72;1751171;80;21155;-59
2021/04/13 07:56:50;;;;;;;30.88;19.45;;;;;;;14.00;48.16;94539.29;1743418;82;21200;-60
2021/04/13 07:59:44;;;;;;;41.02;20.85;;;;;;;14.15;48.70;94541.47;1757311;80;21158;-61
2021/04/13 08:02:12;;;;;;;54.98;19.95;;;;;;;14.32;48.10;94537.67;1736031;81;21484;-58
2021/04/13 08:04:43;;;;;;;39.63;18.87;;;;;;;14.48;48.12;94540.73;1743460;82;21232;-60
2021/04/13 08:07:28;;;;;;;36.23;21.27;;;;;;;14.58;47.66;94531.84;1687635;82;21051;-60
2021/04/13 08:10:08;;;;;;;31.90;17.95;;;;;;;14.79;47.44;94530.69;1747880;81;22334;-62
2021/04/13 08:12:59;;;;;;;44.73;18.82;;;;;;;15.06;46.75;94534.53;1751221;81;21583;-60
2021/04/13 08:15:52;;;;;;;29.57;17.67;;;;;;;15.23;47.32;94525.84;1731782;81;21251;-60
2021/04/13 08:18:40;;;;;;;31.68;18.82;;;;;;;15.49;45.86;94521.80;1750630;81;21142;-62
2021/04/13 08:21:27;;;;;;;43.00;18.30;;;;;;;15.65;45.17;94515.11;1742503;80;21157;-64
2021/04/13 08:23:56;;;;;;;36.68;20.37;;;;;;;15.87;45.26;94521.56;1740960;80;21216;-61
2021/04/13 08:26:34;;;;;;;33.53;18.30;;;;;;;16.05;44.34;94515.08;1751335;80;21460;-58
2021/04/13 08:29:26;;;;;;;28.87;17.30;;;;;;;16.17;43.76;94515.35;1749930;81;21145;-61
2021/04/13 08:35:15;;;;;;;33.00;17.87;;;;;;;16.40;43.00;94510.19;1754663;79;21586;-61
2021/04/13 08:38:22;;;;;;;42.48;17.65;;;;;;;16.50;42.80;94507.36;1751183;79;21979;-61
2021/04/13 08:41:22;;;;;;;55.52;17.65;;;;;;;16.67;42.78;94502.72;1738408;81;21599;-61
2021/04/13 08:44:12;;;;;;;72.50;21.48;;;;;;;16.78;42.65;94496.66;1731041;81;21130;-64
2021/04/13 08:46:52;;;;;;;37.53;18.07;;;;;;;16.88;42.60;94494.46;1747698;81;21165;-57
2021/04/13 08:49:45;;;;;;;29.02;15.45;;;;;;;16.90;42.28;94491.95;1729771;81;21164;-58
2021/04/13 08:52:42;;;;;;;34.83;17.60;;;;;;;16.89;42.14;94483.48;1764079;81;23127;-57
2021/04/13 08:55:23;;;;;;;50.17;22.55;;;;;;;16.90;42.54;94476.02;1764278;80;21209;-60
2021/04/13 08:58:08;;;;;;;42.10;22.40;;;;;;;16.92;42.46;94468.59;1763352;79;21154;-57
2021/04/13 09:00:55;;;;;;;52.20;25.02;;;;;;;17.07;42.48;94463.65;1762189;79;21891;-58
2021/04/13 09:03:27;;;;;;;53.65;25.92;;;;;;;17.11;42.45;94460.00;1737971;80;21227;-58
2021/04/13 09:06:12;;;;;;;;;;;;;;;17.11;42.48;94451.66;1733531;82;22187;-60
2021/04/13 09:08:54;;;;;;;61.55;23.92;;;;;;;17.08;42.61;94451.27;1739204;82;20261;-58
2021/04/13 09:11:32;;;;;;;54.70;23.97;;;;;;;17.07;42.71;94449.75;1728654;80;21390;-60
2021/04/13 09:14:30;;;;;;;61.42;26.15;;;;;;;17.10;42.79;94448.75;1739327;82;21222;-58
2021/04/13 09:17:15;;;;;;;48.75;23.98;;;;;;;17.20;42.86;94453.62;1723214;82;21174;-58
2021/04/13 09:20:24;;;;;;;69.00;32.53;;;;;;;17.33;42.71;94451.79;1707367;82;21119;-64
2021/04/13 09:23:05;;;;;;;52.17;24.05;;;;;;;17.37;42.56;94441.98;1697985;82;22321;-60
2021/04/13 09:25:44;;;;;;;44.03;22.55;;;;;;;17.65;42.46;94442.12;1721774;82;21099;-59
2021/04/13 09:28:25;;;;;;;62.17;24.90;;;;;;;17.97;41.78;94435.16;1720203;82;21195;-57
2021/04/13 09:31:08;;;;;;;43.50;21.95;;;;;;;18.23;41.05;94434.44;1706731;81;21118;-60
2021/04/13 09:33:40;;;;;;;45.30;23.60;;;;;;;18.38;41.00;94426.65;1728872;82;22139;-59
2021/04/13 09:36:29;;;;;;;40.45;23.25;;;;;;;18.53;41.24;94424.38;1720208;80;21257;-57
2021/04/13 09:39:40;;;;;;;44.75;23.98;;;;;;;18.73;40.54;94423.36;1728818;82;21170;-56
2021/04/13 09:42:36;;;;;;;39.58;23.20;;;;;;;18.89;41.00;94423.36;1727108;82;21202;-56
2021/04/13 09:45:30;;;;;;;39.78;22.48;;;;;;;19.19;41.03;94414.58;1731160;80;21164;-56
2021/04/13 09:48:31;;;;;;;35.90;21.00;;;;;;;19.46;41.46;94409.58;1730626;80;21674;-67
2021/04/13 09:51:34;;;;;;;37.85;22.50;;;;;;;19.56;40.55;94405.21;1653755;85;21497;-58
2021/04/13 09:54:34;;;;;;;35.88;20.23;;;;;;;19.59;41.43;94398.59;1736556;82;21729;-57
2021/04/13 09:57:42;;;;;;;59.98;33.33;;;;;;;19.62;41.52;94410.16;1734700;80;21229;-61
2021/04/13 10:00:33;;;;;;;56.02;26.75;;;;;;;19.55;40.72;94403.69;1732532;82;21196;-60
2021/04/13 10:03:33;;;;;;;43.83;25.00;;;;;;;19.37;41.04;94400.73;1737130;80;21600;-58
2021/04/13 10:06:02;;;;;;;41.85;21.68;;;;;;;19.30;41.39;94408.98;1739757;80;21638;-58
2021/04/13 10:08:37;;;;;;;44.10;23.32;;;;;;;19.19;41.74;94400.63;1739751;80;21574;-57
2021/04/13 10:11:23;;;;;;;35.98;21.17;;;;;;;19.17;42.36;94399.00;1721735;80;21194;-59
2021/04/13 10:14:37;;;;;;;36.15;22.00;;;;;;;19.29;41.86;94405.30;1719062;80;21574;-56
2021/04/13 10:18:01;;;;;;;44.27;23.98;;;;;;;19.48;42.01;94404.23;1667512;85;21410;-58
2021/04/13 10:21:01;;;;;;;39.92;25.10;;;;;;;19.73;40.83;94398.92;1681343;83;21283;-60
2021/04/13 10:24:04;;;;;;;41.25;23.35;;;;;;;19.84;40.81;94396.72;1654313;83;21620;-63
2021/04/13 10:27:03;;;;;;;33.92;22.90;;;;;;;20.01;41.24;94406.54;1736614;81;21184;-56
2021/04/13 10:30:04;;;;;;;38.65;22.85;;;;;;;20.26;40.77;94391.42;1868822;76;22238;-58
2021/04/13 10:32:46;;;;;;;37.13;24.50;;;;;;;20.22;40.43;94395.88;1832384;77;21531;-57
2021/04/13 10:35:44;;;;;;;41.75;26.23;;;;;;;20.18;40.65;94398.86;1838439;77;21172;-56
2021/04/13 10:39:02;;;;;;;38.13;23.25;;;;;;;20.12;41.19;94400.16;1810275;78;21176;-58
2021/04/13 10:42:13;;;;;;;38.23;22.27;;;;;;;20.04;41.53;94393.59;1812797;78;21192;-56
2021/04/13 10:44:55;;;;;;;41.33;24.52;;;;;;;19.88;41.41;94388.82;1813765;78;21469;-60
2021/04/13 10:48:07;;;;;;;39.23;23.90;;;;;;;19.73;41.81;94386.36;1794938;79;21632;-58
2021/04/13 10:50:45;;;;;;;41.88;29.10;;;;;;;19.57;42.78;94386.45;1799018;78;21435;-57
2021/04/13 10:53:57;;;;;;;47.98;28.57;;;;;;;19.35;44.15;94390.07;1783716;78;21152;-56
2021/04/13 10:56:49;;;;;;;44.85;27.25;;;;;;;19.18;44.25;94388.61;1796467;78;21242;-56
2021/04/13 10:59:46;;;;;;;49.80;30.75;;;;;;;19.08;44.54;94395.07;1794696;78;21125;-55
2021/04/13 11:02:55;;;;;;;59.10;34.58;;;;;;;19.01;44.72;94406.73;1783905;78;21164;-56
2021/04/13 11:06:01;;;;;;;63.15;39.45;;;;;;;18.89;44.77;94398.27;1785841;78;21371;-60
2021/04/13 11:09:24;;;;;;;55.28;36.38;;;;;;;18.46;45.48;94399.80;1761306;79;21252;-60
2021/04/13 11:12:09;;;;;;;53.10;35.40;;;;;;;18.09;46.80;94407.45;1786044;78;21175;-62
2021/04/13 11:15:04;;;;;;;56.73;38.02;;;;;;;17.72;47.93;94405.45;1783868;79;22180;-61
2021/04/13 11:18:03;;;;;;;79.47;44.75;;;;;;;17.48;48.52;94405.87;1804662;78;21184;-62
2021/04/13 11:20:52;;;;;;;69.10;45.17;;;;;;;17.34;48.96;94407.45;1793371;78;23450;-59
2021/04/13 11:23:59;;;;;;;71.67;42.93;;;;;;;17.18;49.21;94413.66;1793389;78;21204;-64
2021/04/13 11:27:01;;;;;;;69.92;48.33;;;;;;;16.99;50.00;94404.98;1786405;78;21090;-64
2021/04/13 11:30:00;;;;;;;69.42;45.40;;;;;;;16.74;50.27;94408.58;1791958;78;21158;-60
2021/04/13 11:33:17;;;;;;;65.05;41.40;;;;;;;16.50;51.22;94414.33;1794162;78;21185;-61
2021/04/13 11:36:10;;;;;;;78.70;44.53;;;;;;;16.26;51.32;94405.52;1783424;78;22249;-60
2021/04/13 11:39:02;;;;;;;62.38;43.90;;;;;;;16.05;52.21;94416.56;1791523;78;21113;-62
2021/04/13 11:41:48;;;;;;;71.75;48.02;;;;;;;15.92;52.92;94414.04;1789879;79;21271;-64
2021/04/13 11:44:35;;;;;;;65.75;42.65;;;;;;;15.79;53.20;94412.25;1795633;77;22790;-57
2021/04/13 11:47:37;;;;;;;70.37;45.90;;;;;;;15.73;53.36;94420.51;1798037;78;21093;-61
2021/04/13 11:50:24;;;;;;;72.82;45.67;;;;;;;15.67;53.16;94407.22;1780676;78;22133;-62
2021/04/13 11:53:05;;;;;;;73.33;46.37;;;;;;;15.56;53.53;94418.17;1791718;78;21551;-61
2021/04/13 11:55:49;;;;;;;69.10;45.63;;;;;;;15.48;53.96;94415.70;1780384;78;21619;-61
2021/04/13 11:58:28;;;;;;;79.00;48.58;;;;;;;15.46;53.80;94417.42;1800241;78;21460;-60
2021/04/13 12:01:17;;;;;;;72.45;47.40;;;;;;;15.40;53.92;94420.76;1723923;81;21150;-59
2021/04/13 12:04:07;;;;;;;68.87;44.95;;;;;;;15.25;54.59;94419.42;1747245;79;21202;-59
2021/04/13 12:06:54;;;;;;;68.33;44.73;;;;;;;15.01;54.95;94414.67;1733443;81;21210;-59
2021/04/13 12:09:48;;;;;;;59.40;38.42;;;;;;;14.77;55.48;94404.40;1746439;81;21287;-60
2021/04/13 12:12:38;;;;;;;76.22;46.92;;;;;;;14.60;56.23;94410.31;1743128;81;21207;-58
2021/04/13 12:15:12;;;;;;;82.15;49.58;;;;;;;14.43;56.57;94411.92;1753954;80;21150;-62
2021/04/13 12:17:44;;;;;;;75.20;48.50;;;;;;;14.19;56.85;94419.59;1745488;81;21211;-64
2021/04/13 12:20:34;;;;;;;82.70;52.13;;;;;;;13.99;57.54;94414.69;1722804;81;21197;-59
2021/04/13 12:23:15;;;;;;;82.67;52.05;;;;;;;13.87;57.85;94421.87;1741642;80;21206;-58
2021/04/13 12:25:58;;;;;;;95.20;58.60;;;;;;;13.77;58.18;94421.20;1759390;80;21181;-57
2021/04/13 12:28:37;;;;;;;94.15;54.95;;;;;;;13.71;58.47;94425.10;1745892;80;21130;-61
2021/04/13 12:31:23;;;;;;;138.62;66.87;;;;;;;13.58;58.81;94422.61;1740965;81;21208;-58
2021/04/13 12:34:05;;;;;;;100.80;57.48;;;;;;;13.44;59.35;94417.06;1751757;80;21172;-60
2021/04/13 12:36:57;;;;;;;96.17;52.08;;;;;;;13.30;59.92;94420.54;1748420;81;21142;-59